Time;durP1;ratioP1;P1;durP2;ratioP2;P2;SDS_P1;SDS_P2;PMS_P1;PMS_P2;Temp;Humidity;BMP_temperature;BMP_pressure;BME280_temperature;BME280_humidity;BME280_pressure;Samples;Min_cycle;Max_cycle;Signal;HPM_P1;HPM_P2
2022/07/08 00:00:19;;;;;;;3.93;1.77;;;;;;;;;;5013616;28;20283;-68
2022/07/08 00:02:46;;;;;;;5.43;2.10;;;;;;;;;;5013920;28;20176;-65
2022/07/08 00:05:12;;;;;;;3.87;1.70;;;;;;;;;;5013633;28;20259;-64
2022/07/08 00:07:37;;;;;;;4.40;2.23;;;;;;;;;;5013851;28;20590;-67
2022/07/08 00:10:05;;;;;;;6.13;1.90;;;;;;;;;;5013858;28;20203;-67
2022/07/08 00:12:31;;;;;;;4.33;1.63;;;;;;;;;;5013946;28;20270;-66
2022/07/08 00:14:57;;;;;;;3.60;1.87;;;;;;;;;;5013894;28;20218;-66
2022/07/08 00:17:23;;;;;;;2.80;1.70;;;;;;;;;;5013296;28;20775;-64
2022/07/08 00:19:49;;;;;;;3.97;1.83;;;;;;;;;;5012317;28;20299;-65
2022/07/08 00:22:15;;;;;;;5.13;1.90;;;;;;;;;;5012386;28;20172;-64
2022/07/08 00:24:41;;;;;;;5.77;2.03;;;;;;;;;;5013599;28;20184;-65
2022/07/08 00:27:06;;;;;;;4.53;1.97;;;;;;;;;;5013187;28;20216;-66
2022/07/08 00:29:32;;;;;;;5.13;2.57;;;;;;;;;;5013983;28;20564;-63
2022/07/08 00:31:58;;;;;;;6.87;1.97;;;;;;;;;;5013240;28;20553;-64
2022/07/08 00:34:24;;;;;;;6.70;2.20;;;;;;;;;;5013227;28;20184;-63
2022/07/08 00:36:50;;;;;;;8.30;1.90;;;;;;;;;;5011849;28;20196;-65
2022/07/08 00:39:16;;;;;;;5.37;1.90;;;;;;;;;;5013223;28;20210;-65
2022/07/08 00:41:42;;;;;;;4.80;1.77;;;;;;;;;;5013492;28;20178;-67
2022/07/08 00:44:08;;;;;;;6.87;1.90;;;;;;;;;;5011826;28;20183;-66
2022/07/08 00:46:34;;;;;;;3.80;1.93;;;;;;;;;;5011879;28;20204;-66
2022/07/08 00:49:00;;;;;;;6.77;2.40;;;;;;;;;;5013472;28;20176;-66
2022/07/08 00:51:28;;;;;;;4.80;1.77;;;;;;;;;;5013536;28;20311;-66
2022/07/08 00:53:54;;;;;;;2.97;1.70;;;;;;;;;;5011955;28;20667;-66
2022/07/08 00:56:21;;;;;;;6.50;2.00;;;;;;;;;;5013080;28;20203;-64
2022/07/08 00:58:48;;;;;;;4.33;2.13;;;;;;;;;;5011819;28;20285;-65
2022/07/08 01:01:15;;;;;;;4.47;1.97;;;;;;;;;;5013393;28;20187;-62
2022/07/08 01:03:41;;;;;;;4.10;1.90;;;;;;;;;;5013068;28;20198;-64
2022/07/08 01:06:08;;;;;;;5.17;1.70;;;;;;;;;;5011713;28;20242;-66
2022/07/08 01:08:33;;;;;;;5.73;1.67;;;;;;;;;;5013167;28;20188;-66
2022/07/08 01:11:00;;;;;;;7.13;2.50;;;;;;;;;;5012886;28;20557;-66
2022/07/08 01:13:26;;;;;;;5.57;2.00;;;;;;;;;;5011758;28;20223;-66
2022/07/08 01:15:52;;;;;;;8.23;1.80;;;;;;;;;;5011644;28;20212;-66
2022/07/08 01:18:22;;;;;;;6.47;2.07;;;;;;;;;;5012920;28;20208;-64
2022/07/08 01:20:49;;;;;;;2.53;1.70;;;;;;;;;;5012827;28;20172;-66
2022/07/08 01:23:15;;;;;;;6.20;2.07;;;;;;;;;;5015042;28;20555;-66
2022/07/08 01:25:41;;;;;;;6.80;1.87;;;;;;;;;;5016407;28;20216;-67
2022/07/08 01:28:06;;;;;;;6.07;1.80;;;;;;;;;;5016600;28;20532;-66
2022/07/08 01:30:32;;;;;;;7.70;2.77;;;;;;;;;;5015029;28;20184;-66
2022/07/08 01:32:58;;;;;;;10.80;2.50;;;;;;;;;;5014917;28;20188;-66
2022/07/08 01:35:24;;;;;;;3.40;2.10;;;;;;;;;;5016168;28;20187;-66
2022/07/08 01:37:50;;;;;;;6.60;2.20;;;;;;;;;;5014752;28;20207;-66
2022/07/08 01:40:16;;;;;;;3.90;1.70;;;;;;;;;;5016023;28;20176;-66
2022/07/08 01:42:42;;;;;;;5.10;1.77;;;;;;;;;;5016224;28;20176;-66
2022/07/08 01:45:08;;;;;;;5.70;1.70;;;;;;;;;;5016084;28;20172;-65
2022/07/08 01:47:34;;;;;;;4.87;1.73;;;;;;;;;;5016513;28;20191;-65
2022/07/08 01:50:00;;;;;;;8.50;2.10;;;;;;;;;;5017177;28;20175;-66
2022/07/08 01:52:26;;;;;;;5.83;2.10;;;;;;;;;;5014589;28;20184;-65
2022/07/08 01:54:52;;;;;;;4.90;1.77;;;;;;;;;;5016069;28;20703;-65
2022/07/08 01:57:21;;;;;;;3.80;2.10;;;;;;;;;;5015911;28;20207;-62
2022/07/08 01:59:48;;;;;;;6.33;1.83;;;;;;;;;;5014526;28;20743;-65
2022/07/08 02:02:14;;;;;;;4.90;2.07;;;;;;;;;;5014546;28;20560;-66
2022/07/08 02:04:41;;;;;;;5.70;2.10;;;;;;;;;;5015727;28;20180;-66
2022/07/08 02:07:07;;;;;;;5.63;2.20;;;;;;;;;;5016082;28;20519;-65
2022/07/08 02:09:34;;;;;;;5.07;2.00;;;;;;;;;;5014615;28;20183;-65
2022/07/08 02:14:44;;;;;;;6.67;1.97;;;;;;;;;;5015688;28;20306;-65
2022/07/08 02:17:10;;;;;;;4.80;1.87;;;;;;;;;;5015407;28;20199;-62
2022/07/08 02:19:36;;;;;;;3.90;2.03;;;;;;;;;;5015405;28;20683;-62
2022/07/08 02:22:03;;;;;;;3.73;1.70;;;;;;;;;;5014138;28;20182;-64
2022/07/08 02:24:29;;;;;;;5.17;2.00;;;;;;;;;;5014041;28;20214;-64
2022/07/08 02:26:55;;;;;;;7.10;2.30;;;;;;;;;;5013977;28;20211;-64
2022/07/08 02:29:21;;;;;;;5.07;2.10;;;;;;;;;;5015254;28;20191;-65
2022/07/08 02:31:47;;;;;;;6.37;2.03;;;;;;;;;;5013962;28;20188;-64
2022/07/08 02:34:13;;;;;;;8.97;2.07;;;;;;;;;;5013731;28;20184;-62
2022/07/08 02:36:39;;;;;;;6.00;2.07;;;;;;;;;;5013798;28;20208;-65
2022/07/08 02:39:05;;;;;;;4.60;2.23;;;;;;;;;;5013729;28;20262;-65
2022/07/08 02:41:31;;;;;;;5.77;1.70;;;;;;;;;;5015156;28;20183;-63
2022/07/08 02:43:57;;;;;;;6.43;1.90;;;;;;;;;;5015060;28;20177;-65
2022/07/08 02:46:23;;;;;;;6.00;2.00;;;;;;;;;;5015060;28;20196;-63
2022/07/08 02:48:49;;;;;;;7.33;1.90;;;;;;;;;;5013831;28;20187;-63
2022/07/08 02:51:15;;;;;;;5.83;2.03;;;;;;;;;;5015526;28;20519;-65
2022/07/08 02:53:41;;;;;;;8.83;1.90;;;;;;;;;;5014880;28;20668;-65
2022/07/08 02:56:07;;;;;;;6.77;1.87;;;;;;;;;;5014919;28;20200;-65
2022/07/08 02:58:33;;;;;;;5.97;2.10;;;;;;;;;;5014792;28;20210;-64
2022/07/08 03:00:59;;;;;;;7.07;2.30;;;;;;;;;;5014887;28;20543;-65
2022/07/08 03:03:25;;;;;;;4.43;2.10;;;;;;;;;;5013640;28;20253;-65
2022/07/08 03:05:51;;;;;;;3.80;1.90;;;;;;;;;;5015017;28;20634;-65
2022/07/08 03:08:17;;;;;;;7.23;2.20;;;;;;;;;;5015177;28;20211;-65
2022/07/08 03:10:43;;;;;;;4.67;2.13;;;;;;;;;;5014784;28;20184;-62
2022/07/08 03:13:08;;;;;;;5.47;2.40;;;;;;;;;;5014644;28;20180;-66
2022/07/08 03:15:34;;;;;;;6.33;2.30;;;;;;;;;;5014280;28;20696;-65
2022/07/08 03:18:00;;;;;;;7.50;2.37;;;;;;;;;;5014311;28;20621;-66
2022/07/08 03:20:27;;;;;;;4.27;2.13;;;;;;;;;;5012971;28;20180;-65
2022/07/08 03:22:52;;;;;;;3.07;2.10;;;;;;;;;;5014479;28;20309;-65
2022/07/08 03:25:18;;;;;;;4.33;2.17;;;;;;;;;;5014612;28;20218;-66
2022/07/08 03:27:44;;;;;;;6.63;2.30;;;;;;;;;;5014844;28;20172;-65
2022/07/08 03:30:10;;;;;;;6.17;2.53;;;;;;;;;;5012955;28;20700;-65
2022/07/08 03:32:36;;;;;;;4.53;2.03;;;;;;;;;;5014171;28;20210;-62
2022/07/08 03:35:02;;;;;;;8.53;2.77;;;;;;;;;;5014394;28;20186;-65
2022/07/08 03:37:28;;;;;;;5.90;1.90;;;;;;;;;;5014806;28;20292;-64
2022/07/08 03:39:54;;;;;;;4.20;2.03;;;;;;;;;;5014518;28;20687;-64
2022/07/08 03:42:20;;;;;;;5.53;2.43;;;;;;;;;;5012846;28;20203;-63
2022/07/08 03:44:46;;;;;;;6.53;2.53;;;;;;;;;;5013541;28;20184;-65
2022/07/08 03:47:13;;;;;;;3.80;2.17;;;;;;;;;;5013955;28;20235;-66
2022/07/08 03:49:39;;;;;;;5.53;2.00;;;;;;;;;;5013867;28;20176;-66
2022/07/08 03:52:05;;;;;;;6.13;2.53;;;;;;;;;;5014358;28;20591;-66
2022/07/08 03:54:31;;;;;;;4.93;2.10;;;;;;;;;;5014080;28;20172;-66
2022/07/08 03:56:57;;;;;;;2.47;1.83;;;;;;;;;;5013958;28;20200;-66
2022/07/08 03:59:24;;;;;;;5.10;2.20;;;;;;;;;;5013705;28;20204;-66
2022/07/08 04:01:50;;;;;;;5.13;2.30;;;;;;;;;;5013658;28;20632;-66
2022/07/08 04:04:16;;;;;;;7.73;2.90;;;;;;;;;;5014202;28;20251;-66
2022/07/08 04:06:42;;;;;;;6.03;2.60;;;;;;;;;;5012450;28;20253;-66
2022/07/08 04:09:08;;;;;;;4.80;1.97;;;;;;;;;;5013511;28;20307;-67
2022/07/08 04:11:36;;;;;;;5.47;1.80;;;;;;;;;;5013846;28;20198;-67
2022/07/08 04:14:02;;;;;;;9.93;2.67;;;;;;;;;;5012381;28;20237;-67
2022/07/08 04:16:28;;;;;;;4.23;2.40;;;;;;;;;;5013656;28;20207;-67
2022/07/08 04:18:54;;;;;;;5.87;2.07;;;;;;;;;;5013471;28;20215;-67
2022/07/08 04:21:20;;;;;;;8.27;2.37;;;;;;;;;;5012319;28;20186;-66
2022/07/08 04:23:46;;;;;;;3.57;2.20;;;;;;;;;;5013913;28;20176;-67
2022/07/08 04:26:12;;;;;;;8.70;2.20;;;;;;;;;;5013401;28;20215;-67
2022/07/08 04:28:38;;;;;;;4.07;2.20;;;;;;;;;;5014142;28;20183;-66
2022/07/08 04:31:04;;;;;;;6.70;2.50;;;;;;;;;;5012274;28;20191;-67
2022/07/08 04:33:30;;;;;;;5.40;2.00;;;;;;;;;;5013661;28;20179;-67
2022/07/08 04:35:56;;;;;;;3.57;2.03;;;;;;;;;;5013328;28;20200;-67
2022/07/08 04:38:22;;;;;;;7.10;2.27;;;;;;;;;;5015017;28;20214;-70
2022/07/08 04:40:48;;;;;;;4.27;2.00;;;;;;;;;;5013519;28;20226;-64
2022/07/08 04:43:14;;;;;;;5.27;2.43;;;;;;;;;;5012114;28;20184;-66
2022/07/08 04:45:40;;;;;;;4.70;2.23;;;;;;;;;;5013429;28;20589;-66
2022/07/08 04:48:06;;;;;;;6.07;2.23;;;;;;;;;;5013443;28;20671;-66
2022/07/08 04:50:32;;;;;;;4.70;2.20;;;;;;;;;;5014167;28;20543;-67
2022/07/08 04:52:58;;;;;;;7.20;2.60;;;;;;;;;;5012300;28;20705;-67
2022/07/08 04:55:29;;;;;;;6.57;3.00;;;;;;;;;;5013462;28;20648;-68
2022/07/08 04:57:56;;;;;;;6.93;2.30;;;;;;;;;;5016405;28;20278;-65
2022/07/08 05:00:22;;;;;;;4.57;2.40;;;;;;;;;;5015772;28;20175;-64
2022/07/08 05:02:48;;;;;;;4.97;2.40;;;;;;;;;;5015882;28;20188;-63
2022/07/08 05:05:14;;;;;;;7.50;2.50;;;;;;;;;;5015655;28;20190;-63
2022/07/08 05:07:40;;;;;;;5.37;2.53;;;;;;;;;;5015536;28;20546;-67
2022/07/08 05:10:06;;;;;;;5.37;2.47;;;;;;;;;;5016650;28;20183;-67
2022/07/08 05:12:32;;;;;;;4.53;2.37;;;;;;;;;;5015480;28;20206;-67
2022/07/08 05:14:58;;;;;;;8.17;2.53;;;;;;;;;;5016856;28;20659;-67
2022/07/08 05:17:24;;;;;;;17.20;3.00;;;;;;;;;;5015215;28;20200;-67
2022/07/08 05:19:50;;;;;;;5.97;2.20;;;;;;;;;;5017037;28;20210;-68
2022/07/08 05:22:16;;;;;;;12.57;2.30;;;;;;;;;;5016991;28;20701;-67
2022/07/08 05:24:42;;;;;;;8.50;2.23;;;;;;;;;;5016917;28;20672;-67
2022/07/08 05:27:08;;;;;;;3.43;2.07;;;;;;;;;;5016200;28;20223;-67
2022/07/08 05:29:34;;;;;;;3.90;2.23;;;;;;;;;;5015023;28;20184;-68
2022/07/08 05:32:00;;;;;;;6.20;1.97;;;;;;;;;;5015062;28;20195;-68
2022/07/08 05:34:26;;;;;;;7.83;2.23;;;;;;;;;;5016204;28;20184;-68
2022/07/08 05:36:51;;;;;;;8.27;2.30;;;;;;;;;;5016315;28;20200;-67
2022/07/08 05:39:17;;;;;;;2.47;1.73;;;;;;;;;;5016176;28;20200;-65
2022/07/08 05:41:44;;;;;;;5.53;2.10;;;;;;;;;;5016102;28;20180;-67
2022/07/08 05:44:10;;;;;;;3.87;1.90;;;;;;;;;;5016433;28;20254;-68
2022/07/08 05:46:36;;;;;;;5.27;2.27;;;;;;;;;;5015987;28;20226;-64
2022/07/08 05:49:02;;;;;;;4.77;2.13;;;;;;;;;;5014859;28;20187;-67
2022/07/08 05:51:28;;;;;;;4.07;1.87;;;;;;;;;;5016046;28;20210;-67
2022/07/08 05:53:55;;;;;;;5.03;1.97;;;;;;;;;;5016138;28;20207;-67
2022/07/08 05:56:21;;;;;;;7.60;2.13;;;;;;;;;;5015749;28;20199;-67
2022/07/08 05:58:47;;;;;;;2.73;1.83;;;;;;;;;;5015638;28;20222;-69
2022/07/08 06:01:13;;;;;;;7.70;2.20;;;;;;;;;;5015780;28;20640;-68
2022/07/08 06:03:39;;;;;;;4.63;1.90;;;;;;;;;;5015866;28;20258;-68
2022/07/08 06:06:05;;;;;;;6.23;1.70;;;;;;;;;;5015611;28;20192;-68
2022/07/08 06:08:31;;;;;;;6.47;2.27;;;;;;;;;;5014146;28;20188;-68
2022/07/08 06:10:57;;;;;;;1.93;1.70;;;;;;;;;;5015710;28;20682;-67
2022/07/08 06:13:23;;;;;;;2.47;1.90;;;;;;;;;;5015966;28;20654;-68
2022/07/08 06:15:49;;;;;;;4.50;1.97;;;;;;;;;;5015296;28;20612;-67
2022/07/08 06:18:15;;;;;;;4.27;1.90;;;;;;;;;;5016022;28;20745;-67
2022/07/08 06:20:41;;;;;;;3.63;2.17;;;;;;;;;;5014176;28;20180;-66
2022/07/08 06:23:07;;;;;;;6.83;1.70;;;;;;;;;;5015304;28;20187;-64
2022/07/08 06:25:33;;;;;;;4.63;1.83;;;;;;;;;;5013875;28;20199;-66
2022/07/08 06:27:59;;;;;;;5.73;1.80;;;;;;;;;;5014098;28;20180;-66
2022/07/08 06:30:26;;;;;;;5.23;1.77;;;;;;;;;;5014097;28;20199;-67
2022/07/08 06:32:52;;;;;;;4.73;1.80;;;;;;;;;;5014171;28;20186;-67
2022/07/08 06:35:17;;;;;;;7.97;2.33;;;;;;;;;;5015458;28;20180;-67
2022/07/08 06:37:43;;;;;;;5.53;1.70;;;;;;;;;;5015194;28;20706;-64
2022/07/08 06:40:10;;;;;;;4.93;1.63;;;;;;;;;;5013863;28;20234;-67
2022/07/08 06:42:36;;;;;;;6.23;2.20;;;;;;;;;;5015164;28;20180;-67
2022/07/08 06:45:02;;;;;;;7.40;2.10;;;;;;;;;;5013668;28;20662;-66
2022/07/08 06:47:28;;;;;;;7.27;2.17;;;;;;;;;;5013633;28;20199;-63
2022/07/08 06:49:54;;;;;;;7.87;3.20;;;;;;;;;;5013637;28;20806;-67
2022/07/08 06:52:20;;;;;;;6.53;2.50;;;;;;;;;;5013558;28;20191;-67
2022/07/08 06:54:47;;;;;;;5.10;2.13;;;;;;;;;;5013480;28;20184;-67
2022/07/08 06:57:14;;;;;;;4.10;2.23;;;;;;;;;;5014609;28;20251;-67
2022/07/08 06:59:40;;;;;;;3.37;2.03;;;;;;;;;;5014720;28;20199;-68
2022/07/08 07:02:06;;;;;;;3.60;1.70;;;;;;;;;;5013303;28;20179;-67
2022/07/08 07:04:32;;;;;;;9.60;1.80;;;;;;;;;;5014757;28;20405;-67
2022/07/08 07:06:58;;;;;;;6.03;2.00;;;;;;;;;;5014520;28;20199;-65
2022/07/08 07:09:24;;;;;;;7.90;2.23;;;;;;;;;;5013114;28;20222;-65
2022/07/08 07:11:50;;;;;;;6.43;2.10;;;;;;;;;;5014564;28;20236;-66
2022/07/08 07:14:16;;;;;;;3.47;1.90;;;;;;;;;;5013208;28;20187;-68
2022/07/08 07:16:42;;;;;;;7.23;2.00;;;;;;;;;;5014510;28;20616;-67
2022/07/08 07:19:08;;;;;;;3.33;2.00;;;;;;;;;;5013576;28;20203;-66
2022/07/08 07:21:34;;;;;;;3.77;1.90;;;;;;;;;;5014872;28;20212;-67
2022/07/08 07:24:00;;;;;;;7.40;2.87;;;;;;;;;;5014261;28;20228;-66
2022/07/08 07:26:26;;;;;;;8.20;3.37;;;;;;;;;;5013098;28;20215;-67
2022/07/08 07:28:52;;;;;;;3.37;2.47;;;;;;;;;;5014621;28;20199;-66
2022/07/08 07:31:18;;;;;;;7.80;2.43;;;;;;;;;;5014122;28;20180;-67
2022/07/08 07:33:44;;;;;;;9.90;3.53;;;;;;;;;;5014112;28;20195;-67
2022/07/08 07:36:10;;;;;;;8.80;3.07;;;;;;;;;;5012755;28;20199;-67
2022/07/08 07:38:36;;;;;;;6.67;2.83;;;;;;;;;;5014443;28;20200;-67
2022/07/08 07:41:02;;;;;;;7.10;3.10;;;;;;;;;;5014465;28;20176;-68
2022/07/08 07:43:28;;;;;;;5.97;2.90;;;;;;;;;;5014523;28;20282;-68
2022/07/08 07:45:54;;;;;;;6.40;2.80;;;;;;;;;;5013857;28;20746;-67
2022/07/08 07:48:20;;;;;;;4.37;2.43;;;;;;;;;;5014228;28;20190;-67
2022/07/08 07:50:46;;;;;;;9.37;3.10;;;;;;;;;;5014191;28;20187;-66
2022/07/08 07:53:12;;;;;;;6.80;2.30;;;;;;;;;;5014402;28;20629;-65
2022/07/08 07:55:38;;;;;;;6.20;2.30;;;;;;;;;;5012584;28;20296;-68
2022/07/08 07:58:04;;;;;;;6.27;2.10;;;;;;;;;;5013839;28;20283;-67
2022/07/08 08:00:30;;;;;;;4.70;2.30;;;;;;;;;;5013782;28;20179;-67
2022/07/08 08:02:56;;;;;;;6.43;2.30;;;;;;;;;;5012794;28;20263;-67
2022/07/08 08:05:22;;;;;;;7.13;2.30;;;;;;;;;;5012747;28;20184;-68
2022/07/08 08:07:48;;;;;;;6.50;2.30;;;;;;;;;;5012577;28;20735;-67
2022/07/08 08:10:14;;;;;;;7.23;2.27;;;;;;;;;;5013796;28;20258;-67
2022/07/08 08:12:40;;;;;;;4.97;2.00;;;;;;;;;;5013724;28;20640;-67
2022/07/08 08:15:07;;;;;;;5.07;2.03;;;;;;;;;;5012536;28;20179;-67
2022/07/08 08:17:37;;;;;;;4.30;1.80;;;;;;;;;;5012554;28;20600;-67
2022/07/08 08:20:03;;;;;;;4.17;1.80;;;;;;;;;;5012993;28;20322;-67
2022/07/08 08:22:29;;;;;;;6.57;2.10;;;;;;;;;;5013899;28;20176;-68
2022/07/08 08:24:55;;;;;;;6.60;1.97;;;;;;;;;;5014167;28;20183;-68
2022/07/08 08:27:21;;;;;;;6.87;1.83;;;;;;;;;;5013251;28;20253;-67
2022/07/08 08:29:47;;;;;;;4.53;2.20;;;;;;;;;;5013194;28;20268;-67
2022/07/08 08:32:13;;;;;;;4.03;1.67;;;;;;;;;;5017030;28;20663;-67
2022/07/08 08:34:39;;;;;;;3.73;1.97;;;;;;;;;;5016969;28;20176;-67
2022/07/08 08:37:06;;;;;;;5.33;2.00;;;;;;;;;;5016978;28;20668;-65
2022/07/08 08:39:32;;;;;;;5.10;2.17;;;;;;;;;;5016859;28;20203;-67
2022/07/08 08:41:58;;;;;;;6.80;2.00;;;;;;;;;;5015704;28;20234;-67
2022/07/08 08:44:24;;;;;;;5.20;2.23;;;;;;;;;;5015890;28;20184;-67
2022/07/08 08:46:53;;;;;;;5.37;1.83;;;;;;;;;;5016665;28;20199;-67
2022/07/08 08:49:19;;;;;;;5.70;2.50;;;;;;;;;;5015406;28;20607;-67
2022/07/08 08:51:47;;;;;;;5.10;2.10;;;;;;;;;;5015442;28;20184;-67
2022/07/08 08:54:14;;;;;;;6.37;2.10;;;;;;;;;;5015548;28;20218;-67
2022/07/08 08:56:40;;;;;;;6.93;2.40;;;;;;;;;;5016678;28;20242;-66
2022/07/08 08:59:06;;;;;;;4.90;1.93;;;;;;;;;;5015332;28;20203;-67
2022/07/08 09:01:32;;;;;;;6.83;2.00;;;;;;;;;;5015576;28;20180;-67
2022/07/08 09:04:00;;;;;;;3.80;1.80;;;;;;;;;;5016703;28;20179;-67
2022/07/08 09:06:26;;;;;;;3.13;1.70;;;;;;;;;;5016548;28;20686;-66
2022/07/08 09:08:52;;;;;;;4.30;2.10;;;;;;;;;;5016563;28;20187;-63
2022/07/08 09:11:19;;;;;;;9.37;2.27;;;;;;;;;;5015214;28;20556;-65
2022/07/08 09:13:45;;;;;;;3.60;1.77;;;;;;;;;;5016786;28;20171;-66
2022/07/08 09:16:11;;;;;;;4.13;1.73;;;;;;;;;;5016295;28;20265;-66
2022/07/08 09:18:40;;;;;;;4.90;2.00;;;;;;;;;;5016439;28;20226;-65
2022/07/08 09:21:07;;;;;;;5.87;1.90;;;;;;;;;;5016600;28;20632;-66
2022/07/08 09:23:38;;;;;;;7.57;2.23;;;;;;;;;;5016385;28;20176;-66
2022/07/08 09:26:04;;;;;;;5.57;2.77;;;;;;;;;;5016268;28;20586;-66
2022/07/08 09:28:34;;;;;;;7.00;1.80;;;;;;;;;;5014910;28;20242;-66
2022/07/08 09:31:01;;;;;;;2.87;1.60;;;;;;;;;;5016354;28;20234;-67
2022/07/08 09:33:27;;;;;;;5.13;2.27;;;;;;;;;;5016262;28;20259;-66
2022/07/08 09:35:55;;;;;;;9.73;2.00;;;;;;;;;;5014823;28;20211;-66
2022/07/08 09:38:21;;;;;;;3.63;2.03;;;;;;;;;;5014818;28;20220;-62
2022/07/08 09:40:54;;;;;;;6.70;2.10;;;;;;;;;;5014977;28;20317;-63
2022/07/08 09:43:21;;;;;;;5.47;2.53;;;;;;;;;;5015351;28;20540;-65
2022/07/08 09:45:47;;;;;;;7.47;1.90;;;;;;;;;;5015953;28;20196;-66
2022/07/08 09:48:13;;;;;;;6.13;2.23;;;;;;;;;;5015181;28;20184;-63
2022/07/08 09:50:43;;;;;;;2.70;1.67;;;;;;;;;;5014604;28;20183;-66
2022/07/08 09:53:16;;;;;;;4.17;2.00;;;;;;;;;;5016092;28;20175;-66
2022/07/08 09:55:53;;;;;;;6.73;2.20;;;;;;;;;;5015034;28;20574;-66
2022/07/08 09:58:20;;;;;;;9.13;2.17;;;;;;;;;;5016184;28;20263;-66
2022/07/08 10:00:47;;;;;;;4.83;2.10;;;;;;;;;;5015610;28;20258;-66
2022/07/08 10:03:13;;;;;;;3.93;1.90;;;;;;;;;;5015511;28;20545;-66
2022/07/08 10:05:40;;;;;;;6.77;2.90;;;;;;;;;;5014250;28;20203;-67
2022/07/08 10:08:07;;;;;;;4.97;1.90;;;;;;;;;;5015584;28;20184;-66
2022/07/08 10:10:33;;;;;;;4.43;2.03;;;;;;;;;;5015444;28;20176;-67
2022/07/08 10:13:00;;;;;;;4.03;1.90;;;;;;;;;;5014164;28;20187;-66
2022/07/08 10:15:27;;;;;;;4.10;1.80;;;;;;;;;;5013923;28;20257;-66
2022/07/08 10:17:54;;;;;;;3.10;1.60;;;;;;;;;;5015216;28;20179;-63
2022/07/08 10:20:22;;;;;;;4.17;1.80;;;;;;;;;;5015154;28;20176;-66
2022/07/08 10:22:49;;;;;;;3.73;2.00;;;;;;;;;;5013919;28;20637;-66
2022/07/08 10:25:15;;;;;;;9.63;2.20;;;;;;;;;;5014842;28;20180;-67
2022/07/08 10:27:41;;;;;;;2.63;1.73;;;;;;;;;;5015051;28;20191;-67
2022/07/08 10:30:15;;;;;;;6.00;2.20;;;;;;;;;;5013695;28;20187;-66
2022/07/08 10:32:41;;;;;;;5.00;1.93;;;;;;;;;;5013682;28;20183;-65
2022/07/08 10:35:14;;;;;;;3.97;1.80;;;;;;;;;;5015129;28;20180;-66
2022/07/08 10:37:50;;;;;;;3.87;1.50;;;;;;;;;;5014873;28;20185;-66
2022/07/08 10:40:34;;;;;;;4.07;2.30;;;;;;;;;;5014779;28;20262;-67
2022/07/08 10:43:18;;;;;;;7.27;2.07;;;;;;;;;;5015019;28;20179;-66
2022/07/08 10:46:00;;;;;;;7.03;2.13;;;;;;;;;;5014787;28;20220;-66
2022/07/08 10:48:27;;;;;;;5.57;1.80;;;;;;;;;;5014173;28;20191;-67
2022/07/08 10:50:53;;;;;;;4.80;1.80;;;;;;;;;;5014154;28;20377;-66
2022/07/08 10:53:19;;;;;;;5.90;2.13;;;;;;;;;;5013276;28;20180;-67
2022/07/08 10:55:46;;;;;;;6.87;1.90;;;;;;;;;;5014480;28;20301;-66
2022/07/08 10:58:12;;;;;;;2.53;1.80;;;;;;;;;;5014840;28;20200;-67
2022/07/08 11:00:39;;;;;;;6.23;2.40;;;;;;;;;;5043829;23;20241;-67
2022/07/08 11:03:08;;;;;;;3.20;1.97;;;;;;;;;;5034824;28;20164;-67
2022/07/08 11:05:42;;;;;;;5.57;1.90;;;;;;;;;;5034841;28;20175;-67
2022/07/08 11:08:20;;;;;;;2.97;1.80;;;;;;;;;;5034313;28;20186;-67
2022/07/08 11:10:51;;;;;;;3.67;1.70;;;;;;;;;;5016539;28;20206;-66
2022/07/08 11:13:18;;;;;;;4.70;2.00;;;;;;;;;;5016742;28;20179;-67
2022/07/08 11:15:44;;;;;;;3.70;1.90;;;;;;;;;;5034471;28;20675;-68
2022/07/08 11:18:10;;;;;;;6.63;2.10;;;;;;;;;;5034109;28;20242;-65
2022/07/08 11:20:36;;;;;;;4.63;1.93;;;;;;;;;;5034170;28;20206;-64
2022/07/08 11:23:05;;;;;;;6.17;1.87;;;;;;;;;;5034402;28;20179;-68
2022/07/08 11:25:31;;;;;;;4.43;1.90;;;;;;;;;;5016395;28;20190;-67
2022/07/08 11:27:57;;;;;;;4.20;1.80;;;;;;;;;;5016387;28;20179;-67
2022/07/08 11:30:23;;;;;;;4.17;1.90;;;;;;;;;;5016271;28;20183;-67
2022/07/08 11:32:51;;;;;;;4.17;1.80;;;;;;;;;;5016307;28;20597;-67
2022/07/08 11:35:17;;;;;;;3.20;2.00;;;;;;;;;;5016227;28;20232;-67
2022/07/08 11:37:46;;;;;;;3.83;2.10;;;;;;;;;;5016234;28;20194;-67
2022/07/08 11:40:13;;;;;;;3.53;1.70;;;;;;;;;;5033601;28;20237;-68
2022/07/08 11:42:39;;;;;;;4.20;1.90;;;;;;;;;;5016257;28;20769;-68
2022/07/08 11:45:06;;;;;;;3.67;1.83;;;;;;;;;;5016311;28;20213;-65
2022/07/08 11:47:32;;;;;;;5.03;1.93;;;;;;;;;;5033894;28;20182;-67
2022/07/08 11:49:58;;;;;;;4.13;2.03;;;;;;;;;;5033700;28;20186;-66
2022/07/08 11:52:26;;;;;;;4.10;1.80;;;;;;;;;;5016014;28;20293;-66
2022/07/08 11:54:52;;;;;;;3.20;1.90;;;;;;;;;;5034146;28;20179;-65
2022/07/08 11:57:21;;;;;;;6.77;2.00;;;;;;;;;;5033721;28;20257;-66
2022/07/08 11:59:49;;;;;;;5.33;2.20;;;;;;;;;;5033784;28;20198;-66
2022/07/08 12:02:20;;;;;;;3.73;2.20;;;;;;;;;;5033311;28;20686;-65
2022/07/08 12:04:49;;;;;;;2.80;1.70;;;;;;;;;;5033588;28;20470;-65
2022/07/08 12:07:24;;;;;;;5.23;2.20;;;;;;;;;;5033308;28;20635;-66
2022/07/08 12:09:57;;;;;;;6.50;2.23;;;;;;;;;;5033431;28;20182;-65
2022/07/08 12:12:24;;;;;;;7.50;2.20;;;;;;;;;;5033403;28;20202;-67
2022/07/08 12:14:50;;;;;;;4.30;2.00;;;;;;;;;;5033418;28;20241;-66
2022/07/08 12:17:26;;;;;;;7.27;2.03;;;;;;;;;;5033753;28;20186;-65
2022/07/08 12:19:53;;;;;;;5.20;2.00;;;;;;;;;;5015590;28;20203;-66
2022/07/08 12:22:39;;;;;;;4.27;1.77;;;;;;;;;;5015526;28;20202;-66
2022/07/08 12:25:05;;;;;;;6.00;1.90;;;;;;;;;;5015425;28;20554;-67
2022/07/08 12:27:31;;;;;;;2.63;1.83;;;;;;;;;;5033255;28;20185;-66
2022/07/08 12:30:02;;;;;;;3.03;1.97;;;;;;;;;;5033425;28;20207;-66
2022/07/08 12:32:36;;;;;;;4.00;2.10;;;;;;;;;;5033967;28;20257;-66
2022/07/08 12:35:03;;;;;;;2.07;1.40;;;;;;;;;;5034046;28;20178;-66
2022/07/08 12:37:28;;;;;;;3.03;1.80;;;;;;;;;;5033617;28;20182;-66
2022/07/08 12:39:54;;;;;;;5.67;2.10;;;;;;;;;;5033445;28;20551;-66
2022/07/08 12:42:25;;;;;;;6.33;2.17;;;;;;;;;;5033285;28;20580;-66
2022/07/08 12:44:51;;;;;;;5.73;2.30;;;;;;;;;;5033420;28;20702;-66
2022/07/08 12:47:17;;;;;;;6.30;2.30;;;;;;;;;;5033278;28;20175;-66
2022/07/08 12:49:46;;;;;;;2.57;1.90;;;;;;;;;;5033645;28;20205;-66
2022/07/08 12:52:12;;;;;;;3.90;1.80;;;;;;;;;;5015414;28;20203;-68
2022/07/08 12:54:39;;;;;;;2.97;2.03;;;;;;;;;;5033070;28;20183;-67
2022/07/08 12:57:06;;;;;;;4.93;2.17;;;;;;;;;;5033436;28;20216;-66
2022/07/08 12:59:32;;;;;;;6.77;2.30;;;;;;;;;;5015473;28;20214;-67
2022/07/08 13:01:58;;;;;;;4.33;1.80;;;;;;;;;;5032947;28;20210;-67
2022/07/08 13:04:25;;;;;;;2.47;1.60;;;;;;;;;;5015505;28;20174;-66
2022/07/08 13:06:53;;;;;;;2.83;1.50;;;;;;;;;;5033442;28;20186;-68
2022/07/08 13:09:19;;;;;;;3.30;1.77;;;;;;;;;;5015059;28;20560;-66
2022/07/08 13:11:47;;;;;;;6.20;2.37;;;;;;;;;;5033227;28;20195;-67
2022/07/08 13:14:13;;;;;;;3.70;1.97;;;;;;;;;;5034614;28;20647;-68
2022/07/08 13:16:39;;;;;;;4.37;2.00;;;;;;;;;;5033009;28;20190;-66
2022/07/08 13:19:05;;;;;;;3.70;1.83;;;;;;;;;;5036205;28;20241;-66
2022/07/08 13:21:31;;;;;;;3.00;1.73;;;;;;;;;;5036580;28;20202;-67
2022/07/08 13:23:57;;;;;;;5.60;2.03;;;;;;;;;;5036294;28;20171;-66
2022/07/08 13:26:24;;;;;;;5.97;2.40;;;;;;;;;;5036213;28;20690;-68
2022/07/08 13:28:53;;;;;;;4.17;1.93;;;;;;;;;;5036225;28;20670;-67
2022/07/08 13:31:20;;;;;;;5.23;2.10;;;;;;;;;;5018360;28;20249;-67
2022/07/08 13:33:48;;;;;;;3.00;1.87;;;;;;;;;;5036342;28;20205;-67
2022/07/08 13:36:14;;;;;;;6.83;2.13;;;;;;;;;;5036265;28;20244;-67
2022/07/08 13:38:40;;;;;;;4.07;2.37;;;;;;;;;;5036380;28;20213;-67
2022/07/08 13:41:06;;;;;;;7.20;2.33;;;;;;;;;;5018254;28;20289;-67
2022/07/08 13:43:32;;;;;;;3.37;1.57;;;;;;;;;;5018392;28;20179;-69
2022/07/08 13:45:58;;;;;;;6.07;1.83;;;;;;;;;;5018428;28;20175;-67
2022/07/08 13:48:24;;;;;;;2.37;1.57;;;;;;;;;;5036181;28;20210;-68
2022/07/08 13:50:50;;;;;;;3.73;1.80;;;;;;;;;;5036133;28;20261;-67
2022/07/08 13:53:16;;;;;;;2.67;1.60;;;;;;;;;;5036299;28;20175;-67
2022/07/08 13:55:42;;;;;;;3.73;1.80;;;;;;;;;;5036474;28;20179;-67
2022/07/08 13:58:08;;;;;;;3.60;1.90;;;;;;;;;;5036313;28;20674;-67
2022/07/08 14:00:34;;;;;;;3.13;1.83;;;;;;;;;;5035818;28;20776;-67
2022/07/08 14:02:59;;;;;;;2.90;1.73;;;;;;;;;;5036033;28;20167;-67
2022/07/08 14:05:26;;;;;;;2.57;1.83;;;;;;;;;;5036501;28;20190;-67
2022/07/08 14:07:51;;;;;;;2.83;2.10;;;;;;;;;;5036147;28;20551;-67
2022/07/08 14:10:17;;;;;;;1.80;1.60;;;;;;;;;;5036196;28;20643;-67
2022/07/08 14:12:43;;;;;;;2.60;1.40;;;;;;;;;;5036204;28;20583;-67
2022/07/08 14:15:09;;;;;;;2.50;1.40;;;;;;;;;;5035597;28;20183;-66
2022/07/08 14:17:36;;;;;;;3.87;1.70;;;;;;;;;;5035551;28;20171;-67
2022/07/08 14:20:03;;;;;;;2.47;1.80;;;;;;;;;;5035559;28;20194;-66
2022/07/08 14:22:29;;;;;;;4.07;1.90;;;;;;;;;;5035510;28;20199;-69
2022/07/08 14:24:55;;;;;;;6.00;1.67;;;;;;;;;;5035811;28;20233;-67
2022/07/08 14:27:21;;;;;;;4.43;1.60;;;;;;;;;;5035366;28;20174;-67
2022/07/08 14:29:47;;;;;;;1.90;1.70;;;;;;;;;;5035110;28;20183;-67
2022/07/08 14:32:13;;;;;;;4.97;2.73;;;;;;;;;;5017107;28;20290;-67
2022/07/08 14:34:39;;;;;;;3.70;1.93;;;;;;;;;;5017337;28;20187;-68
2022/07/08 14:37:05;;;;;;;4.33;1.87;;;;;;;;;;5017811;28;20191;-69
2022/07/08 14:39:31;;;;;;;3.43;1.70;;;;;;;;;;5035092;28;20604;-66
2022/07/08 14:41:57;;;;;;;2.90;1.97;;;;;;;;;;5035100;28;20191;-67